TimeEDT,TemperatureF,Dew PointF,Humidity,Sea Level PressureIn,VisibilityMPH,Wind Direction,Wind SpeedMPH,Gust SpeedMPH,PrecipitationIn,Events,Conditions,WindDirDegrees,DateUTC
12:15 AM,64.4,55.4,73,30.18,10.0,Calm,Calm,-,N/A,,Overcast,0,2013-08-16 04:15:00
12:35 AM,64.4,55.4,73,30.18,10.0,Calm,Calm,-,N/A,,Overcast,0,2013-08-16 04:35:00
12:55 AM,64.4,55.4,73,30.18,10.0,Calm,Calm,-,N/A,,Overcast,0,2013-08-16 04:55:00
1:15 AM,64.4,55.4,73,30.17,10.0,Calm,Calm,-,N/A,,Overcast,0,2013-08-16 05:15:00
1:55 AM,59.0,55.4,88,30.17,10.0,North,3.5,-,N/A,,Clear,360,2013-08-16 05:55:00
2:15 AM,60.8,55.4,82,30.16,10.0,North,3.5,-,N/A,,Clear,10,2013-08-16 06:15:00
2:35 AM,62.6,55.4,77,30.15,10.0,North,3.5,-,N/A,,Clear,10,2013-08-16 06:35:00
2:55 AM,62.6,55.4,77,30.15,10.0,Calm,Calm,-,N/A,,Clear,0,2013-08-16 06:55:00
3:15 AM,62.6,55.4,77,30.15,10.0,Calm,Calm,-,N/A,,Clear,0,2013-08-16 07:15:00
3:35 AM,62.6,55.4,77,30.14,10.0,Calm,Calm,-,N/A,,Clear,0,2013-08-16 07:35:00
3:55 AM,60.8,55.4,82,30.14,10.0,Calm,Calm,-,N/A,,Clear,0,2013-08-16 07:55:00
4:15 AM,59.0,55.4,88,30.14,10.0,North,4.6,-,N/A,,Clear,360,2013-08-16 08:15:00
4:35 AM,60.8,55.4,82,30.14,10.0,Calm,Calm,-,N/A,,Clear,0,2013-08-16 08:35:00
4:55 AM,60.8,55.4,82,30.15,10.0,Calm,Calm,-,N/A,,Scattered Clouds,0,2013-08-16 08:55:00
5:15 AM,59.0,55.4,88,30.16,10.0,Calm,Calm,-,N/A,,Scattered Clouds,0,2013-08-16 09:15:00
5:35 AM,59.0,55.4,88,30.16,10.0,Calm,Calm,-,N/A,,Clear,0,2013-08-16 09:35:00
5:55 AM,60.8,55.4,82,30.16,10.0,Calm,Calm,-,N/A,,Mostly Cloudy,0,2013-08-16 09:55:00
6:15 AM,60.8,55.4,82,30.17,10.0,North,3.5,-,N/A,,Overcast,360,2013-08-16 10:15:00
6:35 AM,60.8,55.4,82,30.17,10.0,Calm,Calm,-,N/A,,Overcast,0,2013-08-16 10:35:00
6:55 AM,62.6,57.2,82,30.17,10.0,NNE,5.8,-,N/A,,Overcast,20,2013-08-16 10:55:00
7:15 AM,60.8,55.4,82,30.18,10.0,North,4.6,-,N/A,,Overcast,360,2013-08-16 11:15:00
7:35 AM,62.6,55.4,77,30.18,10.0,North,5.8,-,N/A,,Overcast,10,2013-08-16 11:35:00
7:55 AM,62.6,57.2,82,30.19,10.0,NNE,6.9,-,N/A,,Overcast,20,2013-08-16 11:55:00
8:55 AM,64.4,57.2,77,30.20,10.0,Calm,Calm,-,N/A,,Overcast,0,2013-08-16 12:55:00
9:55 AM,64.4,59.0,83,30.20,10.0,NE,5.8,-,N/A,,Overcast,50,2013-08-16 13:55:00
10:55 AM,66.2,60.8,83,30.21,10.0,East,6.9,-,N/A,,Overcast,80,2013-08-16 14:55:00
11:55 AM,68.0,60.8,78,30.20,10.0,ENE,6.9,-,N/A,,Scattered Clouds,70,2013-08-16 15:55:00
12:55 PM,66.2,60.8,83,30.21,7.0,Calm,Calm,-,N/A,,Mostly Cloudy,0,2013-08-16 16:55:00
1:55 PM,66.2,62.6,88,30.19,10.0,East,4.6,-,N/A,Rain,Light Rain,80,2013-08-16 17:55:00
2:55 PM,66.2,60.8,83,30.18,10.0,East,6.9,-,N/A,Rain,Light Rain,80,2013-08-16 18:55:00
3:55 PM,82.4,60.8,48,30.17,10.0,East,6.9,-,N/A,,Overcast,80,2013-08-16 19:55:00
4:55 PM,71.6,57.2,60,30.17,10.0,Calm,Calm,-,N/A,,Scattered Clouds,0,2013-08-16 20:55:00
5:55 PM,71.6,55.4,57,30.17,10.0,NE,6.9,-,N/A,,Scattered Clouds,50,2013-08-16 21:55:00
6:55 PM,71.6,55.4,57,30.16,10.0,ENE,6.9,-,N/A,,Clear,70,2013-08-16 22:55:00
7:55 PM,69.8,57.2,64,30.17,10.0,Calm,Calm,-,N/A,,Clear,0,2013-08-16 23:55:00
8:55 PM,62.6,59.0,88,30.20,10.0,Calm,Calm,-,N/A,,Clear,0,2013-08-17 00:55:00
9:15 PM,62.6,59.0,88,30.20,10.0,Calm,Calm,-,N/A,,Clear,0,2013-08-17 01:15:00
9:35 PM,62.6,59.0,88,30.21,10.0,Calm,Calm,-,N/A,,Clear,0,2013-08-17 01:35:00
9:55 PM,62.6,59.0,88,30.22,10.0,Calm,Calm,-,N/A,,Clear,0,2013-08-17 01:55:00
10:15 PM,62.6,59.0,88,30.22,10.0,Calm,Calm,-,N/A,,Clear,0,2013-08-17 02:15:00
10:35 PM,62.6,59.0,88,30.22,10.0,Calm,Calm,-,N/A,,Clear,0,2013-08-17 02:35:00
10:55 PM,62.6,59.0,88,30.22,10.0,Calm,Calm,-,N/A,,Clear,0,2013-08-17 02:55:00
11:15 PM,60.8,59.0,94,30.22,10.0,Calm,Calm,-,N/A,,Clear,0,2013-08-17 03:15:00
11:35 PM,60.8,59.0,94,30.22,10.0,Calm,Calm,-,N/A,,Clear,0,2013-08-17 03:35:00
11:55 PM,62.6,59.0,88,30.22,10.0,Calm,Calm,-,N/A,,Clear,0,2013-08-17 03:55:00